createdAt,value
2016-12-25T00:00:22.426Z,10.76
2016-12-25T00:01:02.959Z,10.79
2016-12-25T00:01:43.415Z,10.68
2016-12-25T00:02:23.924Z,10.7
2016-12-25T00:03:04.423Z,10.76
2016-12-25T00:03:44.875Z,10.74
2016-12-25T00:04:25.396Z,10.71
2016-12-25T00:05:05.891Z,10.71
2016-12-25T00:05:46.419Z,10.82
2016-12-25T00:06:26.873Z,10.79
2016-12-25T00:07:07.412Z,10.76
2016-12-25T00:07:47.931Z,10.7
2016-12-25T00:08:28.356Z,10.78
2016-12-25T00:09:08.839Z,10.71
2016-12-25T00:09:49.346Z,10.76
2016-12-25T00:10:29.861Z,10.73
2016-12-25T00:11:10.364Z,10.82
2016-12-25T00:11:50.888Z,10.76
2016-12-25T00:12:31.369Z,10.79
2016-12-25T00:13:11.817Z,10.81
2016-12-25T00:13:52.344Z,10.84
2016-12-25T00:14:32.824Z,10.84
2016-12-25T00:15:13.286Z,10.67
2016-12-25T00:15:53.799Z,10.6
2016-12-25T00:16:34.431Z,10.59
2016-12-25T00:17:14.898Z,10.71
2016-12-25T00:17:55.353Z,10.81
2016-12-25T00:18:35.842Z,10.78
2016-12-25T00:19:16.348Z,10.78
2016-12-25T00:19:56.834Z,10.76
2016-12-25T00:20:37.328Z,10.79
2016-12-25T00:21:17.764Z,10.7
2016-12-25T00:21:58.232Z,10.82
2016-12-25T00:22:38.785Z,10.88
2016-12-25T00:23:19.302Z,10.79
2016-12-25T00:23:59.802Z,10.71
2016-12-25T00:24:40.243Z,10.76
2016-12-25T00:25:20.773Z,10.73
2016-12-25T00:26:01.232Z,10.79
2016-12-25T00:26:41.718Z,10.79
2016-12-25T00:27:22.178Z,10.82
2016-12-25T00:28:02.711Z,10.84
2016-12-25T00:28:43.182Z,10.67
2016-12-25T00:29:23.668Z,10.79
2016-12-25T00:30:04.141Z,10.78
2016-12-25T00:30:44.765Z,10.76
2016-12-25T00:31:25.143Z,10.76
2016-12-25T00:32:05.652Z,10.76
2016-12-25T00:32:46.101Z,10.82
2016-12-25T00:33:26.620Z,10.79
2016-12-25T00:34:07.062Z,10.89
2016-12-25T00:34:47.557Z,10.88
2016-12-25T00:35:28.095Z,10.76
2016-12-25T00:36:08.603Z,10.82
2016-12-25T00:36:49.042Z,10.81
2016-12-25T00:37:29.544Z,10.84
2016-12-25T00:38:10.038Z,10.81
2016-12-25T00:38:50.511Z,10.79
2016-12-25T00:39:31.017Z,10.81
2016-12-25T00:40:11.509Z,10.85
2016-12-25T00:40:52.015Z,10.82
2016-12-25T00:41:32.481Z,10.79
2016-12-25T00:42:12.984Z,10.82
2016-12-25T00:42:53.488Z,10.81
2016-12-25T00:43:33.984Z,10.86
2016-12-25T00:44:14.463Z,10.78
2016-12-25T00:44:54.932Z,10.74
2016-12-25T00:45:35.588Z,10.79
2016-12-25T00:46:16.084Z,10.82
2016-12-25T00:46:56.539Z,10.82
2016-12-25T00:47:37.105Z,10.84
2016-12-25T00:48:17.580Z,10.79
2016-12-25T00:48:58.051Z,10.76
2016-12-25T00:49:38.555Z,10.81
2016-12-25T00:50:19.088Z,10.85
2016-12-25T00:50:59.645Z,10.85
2016-12-25T00:51:40.049Z,10.84
2016-12-25T00:52:20.540Z,10.81
2016-12-25T00:53:01.035Z,10.78
2016-12-25T00:53:41.477Z,10.86
2016-12-25T00:54:21.993Z,10.79
2016-12-25T00:55:02.576Z,10.91
2016-12-25T00:55:43.159Z,10.79
2016-12-25T00:56:23.607Z,10.88
2016-12-25T00:57:04.189Z,10.86
2016-12-25T00:57:44.606Z,10.81
2016-12-25T00:58:25.086Z,10.78
2016-12-25T00:59:05.648Z,10.89
2016-12-25T00:59:46.083Z,10.91
2016-12-25T01:00:26.568Z,10.96
2016-12-25T01:01:07.116Z,10.89
2016-12-25T01:01:47.621Z,10.92
2016-12-25T01:02:28.137Z,10.89
2016-12-25T01:03:08.669Z,10.96
2016-12-25T01:03:49.122Z,10.97
2016-12-25T01:04:29.645Z,10.89
2016-12-25T01:05:10.128Z,10.94
2016-12-25T01:05:50.570Z,10.97
2016-12-25T01:06:31.078Z,10.96
2016-12-25T01:07:11.544Z,10.89
2016-12-25T01:07:52.055Z,10.97
2016-12-25T01:08:32.564Z,10.99
2016-12-25T01:09:13.073Z,10.94
2016-12-25T01:09:53.554Z,10.97
2016-12-25T01:10:34.009Z,10.86
2016-12-25T01:11:14.527Z,10.94
2016-12-25T01:13:27.736Z,10.96
2016-12-25T01:14:08.228Z,11
2016-12-25T01:14:48.727Z,11.04
2016-12-25T01:15:29.215Z,10.89
2016-12-25T01:16:09.747Z,10.82
2016-12-25T01:16:50.241Z,10.91
2016-12-25T01:17:30.747Z,10.96
2016-12-25T01:18:11.228Z,10.99
2016-12-25T01:18:51.749Z,11.03
2016-12-25T01:19:32.238Z,11.02
2016-12-25T01:20:12.675Z,11.02
2016-12-25T01:20:53.209Z,10.92
2016-12-25T01:21:33.679Z,11.02
2016-12-25T01:22:14.129Z,11
2016-12-25T01:22:54.643Z,10.97
2016-12-25T01:23:35.137Z,10.92
2016-12-25T01:24:15.647Z,10.92
2016-12-25T01:24:56.111Z,11.07
2016-12-25T01:25:36.643Z,11
2016-12-25T01:26:17.100Z,11.09
2016-12-25T01:26:57.599Z,11.06
2016-12-25T01:27:38.059Z,11.06
2016-12-25T01:28:18.577Z,11.06
2016-12-25T01:28:59.062Z,11.1
2016-12-25T01:29:39.518Z,11.09
2016-12-25T01:30:20.006Z,10.99
2016-12-25T01:31:00.505Z,10.99
2016-12-25T01:31:40.991Z,10.91
2016-12-25T01:32:21.492Z,10.88
2016-12-25T01:33:01.966Z,10.97
2016-12-25T01:33:42.445Z,10.88
2016-12-25T01:34:22.879Z,10.89
2016-12-25T01:35:03.354Z,10.86
2016-12-25T01:35:43.866Z,10.89
2016-12-25T01:36:24.357Z,10.97
2016-12-25T01:37:04.858Z,10.86
2016-12-25T01:37:45.304Z,10.86
2016-12-25T01:38:25.807Z,10.96
2016-12-25T01:39:06.309Z,10.94
2016-12-25T01:39:46.794Z,10.99
2016-12-25T01:40:27.253Z,10.96
2016-12-25T01:41:07.757Z,10.99
2016-12-25T01:41:48.240Z,10.91
2016-12-25T01:42:28.702Z,10.96
2016-12-25T01:43:09.222Z,10.85
2016-12-25T01:43:49.706Z,10.91
2016-12-25T01:44:30.203Z,10.89
2016-12-25T01:45:10.642Z,10.99
2016-12-25T01:45:51.101Z,10.99
2016-12-25T01:46:31.611Z,10.99
2016-12-25T01:47:12.199Z,10.94
2016-12-25T01:47:52.675Z,10.97
2016-12-25T01:48:33.200Z,10.85
2016-12-25T01:49:13.673Z,10.86
2016-12-25T01:49:54.196Z,10.86
2016-12-25T01:50:34.642Z,10.82
2016-12-25T01:51:15.129Z,10.79
2016-12-25T01:51:55.635Z,10.81
2016-12-25T01:52:36.151Z,10.88
2016-12-25T01:53:16.645Z,10.89
2016-12-25T01:53:57.126Z,10.82
2016-12-25T01:54:37.630Z,10.84
2016-12-25T01:55:18.129Z,10.78
2016-12-25T01:55:58.589Z,10.78
2016-12-25T01:56:39.145Z,10.85
2016-12-25T01:57:19.671Z,10.79
2016-12-25T01:58:00.129Z,10.79
2016-12-25T01:58:40.631Z,10.91
2016-12-25T01:59:21.105Z,10.86
2016-12-25T02:00:01.572Z,10.92
2016-12-25T02:00:42.102Z,10.78
2016-12-25T02:01:22.608Z,10.88
2016-12-25T02:02:03.100Z,10.7
2016-12-25T02:02:43.576Z,10.78
2016-12-25T02:03:24.074Z,10.74
2016-12-25T02:04:04.541Z,10.81
2016-12-25T02:04:45.022Z,10.86
2016-12-25T02:05:25.534Z,10.78
2016-12-25T02:06:06.080Z,10.82
2016-12-25T02:06:46.492Z,10.79
2016-12-25T02:07:26.988Z,10.79
2016-12-25T02:08:07.521Z,10.78
2016-12-25T02:08:47.976Z,10.82
2016-12-25T02:09:28.533Z,10.85
2016-12-25T02:13:14.399Z,10.73
2016-12-25T02:13:54.906Z,10.85
2016-12-25T02:14:35.396Z,10.82
2016-12-25T02:15:15.901Z,10.74
2016-12-25T02:15:56.418Z,10.78
2016-12-25T02:16:36.901Z,10.76
2016-12-25T02:17:17.364Z,10.86
2016-12-25T02:17:57.901Z,10.76
2016-12-25T02:18:38.360Z,10.7
2016-12-25T02:19:18.921Z,10.61
2016-12-25T02:19:59.368Z,10.73
2016-12-25T02:20:39.877Z,10.67
2016-12-25T02:21:20.342Z,10.76
2016-12-25T02:22:00.873Z,10.7
2016-12-25T02:22:41.370Z,10.84
2016-12-25T02:23:21.801Z,10.76
2016-12-25T02:24:02.333Z,10.68
2016-12-25T02:24:42.860Z,10.74
2016-12-25T02:25:23.323Z,10.78
2016-12-25T02:26:03.785Z,10.55
2016-12-25T02:26:44.276Z,10.63
2016-12-25T02:27:24.785Z,10.64
2016-12-25T02:28:05.270Z,10.78
2016-12-25T02:28:45.799Z,10.71
2016-12-25T02:29:26.260Z,10.76
2016-12-25T02:30:06.769Z,10.6
2016-12-25T02:30:47.259Z,10.63
2016-12-25T02:31:27.691Z,10.7
2016-12-25T02:32:08.203Z,10.73
2016-12-25T02:32:48.680Z,10.63
2016-12-25T02:33:29.145Z,10.68
2016-12-25T02:34:09.625Z,10.61
2016-12-25T02:34:50.113Z,10.73
2016-12-25T02:35:30.628Z,10.66
2016-12-25T02:36:11.118Z,10.7
2016-12-25T02:36:51.580Z,10.78
2016-12-25T02:37:32.090Z,10.78
2016-12-25T02:38:12.528Z,10.71
2016-12-25T02:38:53.070Z,10.7
2016-12-25T02:39:33.545Z,10.73
2016-12-25T02:40:14.076Z,10.81
2016-12-25T02:40:54.560Z,10.74
2016-12-25T02:41:35.020Z,10.81
2016-12-25T02:42:15.547Z,10.78
2016-12-25T02:42:55.958Z,10.82
2016-12-25T02:43:36.457Z,10.71
2016-12-25T02:44:16.944Z,10.81
2016-12-25T02:44:57.473Z,10.81
2016-12-25T02:45:37.899Z,10.82
2016-12-25T02:46:18.395Z,10.81
2016-12-25T02:46:58.910Z,10.79
2016-12-25T02:47:39.404Z,10.68
2016-12-25T02:48:19.904Z,10.66
2016-12-25T02:49:00.444Z,10.6
2016-12-25T02:49:40.856Z,10.71
2016-12-25T02:50:21.373Z,10.73
2016-12-25T02:51:01.858Z,10.73
2016-12-25T02:51:42.347Z,10.84
2016-12-25T02:52:22.812Z,10.74
2016-12-25T02:53:03.306Z,10.7
2016-12-25T02:53:43.770Z,10.61
2016-12-25T02:54:24.274Z,10.81
2016-12-25T02:55:04.786Z,10.85
2016-12-25T02:55:45.259Z,10.84
2016-12-25T02:56:25.779Z,10.82
2016-12-25T02:57:06.216Z,10.66
2016-12-25T02:57:46.731Z,10.64
2016-12-25T02:58:27.153Z,10.79
2016-12-25T02:59:07.655Z,10.67
2016-12-25T02:59:48.178Z,10.59
2016-12-25T03:00:28.651Z,10.64
2016-12-25T03:01:09.153Z,10.66
2016-12-25T03:01:49.644Z,10.67
2016-12-25T03:02:30.090Z,10.6
2016-12-25T03:03:10.594Z,10.64
2016-12-25T03:03:51.115Z,10.67
2016-12-25T03:04:31.589Z,10.71
2016-12-25T03:05:12.072Z,10.71
2016-12-25T03:05:52.574Z,10.7
2016-12-25T03:06:33.104Z,10.61
2016-12-25T03:07:13.540Z,10.67
2016-12-25T03:07:54.008Z,10.64
2016-12-25T03:11:39.962Z,10.73
2016-12-25T03:12:20.436Z,10.56
2016-12-25T03:13:00.952Z,10.7
2016-12-25T03:13:41.463Z,10.61
2016-12-25T03:14:21.938Z,10.48
2016-12-25T03:15:02.416Z,10.53
2016-12-25T03:15:42.893Z,10.48
2016-12-25T03:16:23.355Z,10.56
2016-12-25T03:17:03.838Z,10.7
2016-12-25T03:17:44.361Z,10.6
2016-12-25T03:18:24.840Z,10.53
2016-12-25T03:19:05.390Z,10.63
2016-12-25T03:19:45.863Z,10.56
2016-12-25T03:20:26.377Z,10.52
2016-12-25T03:21:06.867Z,10.6
2016-12-25T03:21:47.338Z,10.52
2016-12-25T03:22:27.823Z,10.36
2016-12-25T03:23:08.274Z,10.55
2016-12-25T03:23:48.799Z,10.56
2016-12-25T03:24:29.244Z,10.63
2016-12-25T03:25:09.766Z,10.52
2016-12-25T03:25:50.289Z,10.52
2016-12-25T03:26:30.839Z,10.55
2016-12-25T03:27:11.314Z,10.53
2016-12-25T03:27:51.761Z,10.63
2016-12-25T03:28:32.257Z,10.59
2016-12-25T03:29:12.768Z,10.59
2016-12-25T03:29:53.262Z,10.53
2016-12-25T03:30:33.715Z,10.56
2016-12-25T03:31:14.209Z,10.6
2016-12-25T03:31:54.718Z,10.6
2016-12-25T03:32:35.212Z,10.61
2016-12-25T03:33:15.777Z,10.59
2016-12-25T03:33:56.200Z,10.61
2016-12-25T03:34:36.709Z,10.59
2016-12-25T03:35:17.200Z,10.66
2016-12-25T03:35:57.661Z,10.61
2016-12-25T03:36:38.205Z,10.66
2016-12-25T03:37:18.665Z,10.68
2016-12-25T03:37:59.134Z,10.6
2016-12-25T03:38:39.658Z,10.63
2016-12-25T03:39:20.100Z,10.6
2016-12-25T03:40:00.588Z,10.68
2016-12-25T03:40:41.083Z,10.6
2016-12-25T03:41:21.592Z,10.6
2016-12-25T03:42:02.107Z,10.52
2016-12-25T03:42:42.631Z,10.56
2016-12-25T03:43:23.082Z,10.55
2016-12-25T03:44:03.580Z,10.66
2016-12-25T03:44:44.037Z,10.6
2016-12-25T03:45:24.545Z,10.64
2016-12-25T03:46:05.000Z,10.52
2016-12-25T03:46:45.473Z,10.63
2016-12-25T03:47:25.951Z,10.63
2016-12-25T03:48:06.554Z,10.56
2016-12-25T03:48:47.024Z,10.67
2016-12-25T03:49:27.553Z,10.61
2016-12-25T03:50:08.022Z,10.59
2016-12-25T03:50:48.538Z,10.61
2016-12-25T03:51:28.989Z,10.64
2016-12-25T03:52:09.528Z,10.56
2016-12-25T03:52:50.010Z,10.45
2016-12-25T03:53:30.524Z,10.52
2016-12-25T03:54:10.986Z,10.53
2016-12-25T03:54:51.549Z,10.59
2016-12-25T03:55:31.973Z,10.52
2016-12-25T03:56:12.500Z,10.55
2016-12-25T03:56:52.967Z,10.47
2016-12-25T03:57:33.457Z,10.45
2016-12-25T03:58:13.920Z,10.45
2016-12-25T03:58:54.424Z,10.51
2016-12-25T03:59:34.965Z,10.6
2016-12-25T04:00:15.425Z,10.53
2016-12-25T04:00:55.906Z,10.33
2016-12-25T04:01:36.350Z,10.45
2016-12-25T04:02:16.903Z,10.52
2016-12-25T04:02:57.436Z,10.52
2016-12-25T04:03:37.969Z,10.52
2016-12-25T04:04:18.452Z,10.63
2016-12-25T04:04:58.920Z,10.61
2016-12-25T04:05:39.433Z,10.52
2016-12-25T04:06:19.863Z,10.53
2016-12-25T04:08:33.069Z,10.59
2016-12-25T04:09:13.568Z,10.67
2016-12-25T04:09:54.071Z,10.68
2016-12-25T04:10:34.550Z,10.6
2016-12-25T04:11:15.053Z,10.64
2016-12-25T04:11:55.586Z,10.61
2016-12-25T04:12:36.033Z,10.59
2016-12-25T04:13:16.578Z,10.64
2016-12-25T04:13:57.076Z,10.68
2016-12-25T04:14:37.559Z,10.61
2016-12-25T04:15:18.041Z,10.51
2016-12-25T04:15:58.528Z,10.53
2016-12-25T04:16:39.055Z,10.7
2016-12-25T04:17:19.505Z,10.6
2016-12-25T04:18:00.033Z,10.64
2016-12-25T04:18:40.508Z,10.59
2016-12-25T04:19:21.055Z,10.63
2016-12-25T04:20:01.527Z,10.59
2016-12-25T04:20:41.979Z,10.51
2016-12-25T04:21:22.463Z,10.68
2016-12-25T04:22:02.976Z,10.64
2016-12-25T04:22:43.467Z,10.63
2016-12-25T04:23:23.905Z,10.61
2016-12-25T04:24:04.404Z,10.63
2016-12-25T04:24:44.892Z,10.61
2016-12-25T04:25:25.383Z,10.45
2016-12-25T04:26:05.879Z,10.51
2016-12-25T04:26:46.345Z,10.53
2016-12-25T04:27:26.879Z,10.52
2016-12-25T04:28:07.354Z,10.59
2016-12-25T04:28:47.876Z,10.73
2016-12-25T04:29:28.585Z,10.61
2016-12-25T04:30:09.062Z,10.74
2016-12-25T04:30:49.559Z,10.61
2016-12-25T04:31:30.048Z,10.64
2016-12-25T04:32:10.564Z,10.73
2016-12-25T04:32:51.048Z,10.76
2016-12-25T04:33:31.533Z,10.6
2016-12-25T04:34:12.033Z,10.76
2016-12-25T04:34:52.504Z,10.66
2016-12-25T04:35:32.974Z,10.7
2016-12-25T04:36:13.522Z,10.7
2016-12-25T04:36:53.938Z,10.78
2016-12-25T04:37:34.419Z,10.67
2016-12-25T04:38:14.933Z,10.81
2016-12-25T04:38:55.424Z,10.78
2016-12-25T04:39:35.907Z,10.71
2016-12-25T04:40:16.354Z,10.78
2016-12-25T04:40:56.819Z,10.71
2016-12-25T04:41:37.336Z,10.82
2016-12-25T04:42:17.800Z,10.79
2016-12-25T04:42:58.325Z,10.82
2016-12-25T04:43:38.830Z,10.79
2016-12-25T04:44:19.322Z,10.76
2016-12-25T04:44:59.795Z,10.88
2016-12-25T04:45:40.295Z,10.78
2016-12-25T04:46:20.906Z,10.7
2016-12-25T04:47:01.237Z,10.68
2016-12-25T04:47:41.752Z,10.78
2016-12-25T04:48:22.240Z,10.82
2016-12-25T04:49:02.703Z,10.61
2016-12-25T04:49:43.245Z,10.7
2016-12-25T04:50:23.681Z,10.73
2016-12-25T04:51:04.213Z,10.78
2016-12-25T04:51:44.669Z,10.59
2016-12-25T04:52:25.221Z,10.74
2016-12-25T04:53:05.690Z,10.59
2016-12-25T04:53:46.181Z,10.63
2016-12-25T04:54:26.661Z,10.63
2016-12-25T04:55:07.155Z,10.56
2016-12-25T04:55:47.682Z,10.61
2016-12-25T04:56:28.179Z,10.52
2016-12-25T04:57:08.751Z,10.4
2016-12-25T04:57:49.207Z,10.4
2016-12-25T04:58:29.745Z,10.4
2016-12-25T04:59:10.237Z,10.45
2016-12-25T04:59:50.753Z,10.44
2016-12-25T05:00:31.221Z,10.51
2016-12-25T05:01:11.698Z,10.59
2016-12-25T05:01:52.154Z,10.48
2016-12-25T05:02:32.650Z,10.63
2016-12-25T05:03:13.129Z,10.66
2016-12-25T05:03:53.676Z,10.52
2016-12-25T05:04:34.138Z,10.55
2016-12-25T05:06:47.336Z,10.53
2016-12-25T05:07:27.831Z,10.44
2016-12-25T05:08:08.322Z,10.55
2016-12-25T05:08:48.912Z,10.55
2016-12-25T05:09:29.427Z,10.53
2016-12-25T05:10:09.925Z,10.6
2016-12-25T05:10:50.478Z,10.61
2016-12-25T05:11:30.933Z,10.59
2016-12-25T05:12:11.405Z,10.55
2016-12-25T05:12:51.937Z,10.59
2016-12-25T05:13:32.490Z,10.56
2016-12-25T05:14:13.011Z,10.63
2016-12-25T05:14:53.492Z,10.68
2016-12-25T05:15:33.927Z,10.61
2016-12-25T05:16:14.400Z,10.73
2016-12-25T05:16:54.889Z,10.73
2016-12-25T05:17:35.359Z,10.67
2016-12-25T05:18:15.846Z,10.66
2016-12-25T05:18:56.377Z,10.59
2016-12-25T05:19:36.840Z,10.66
2016-12-25T05:20:17.345Z,10.66
2016-12-25T05:20:57.877Z,10.61
2016-12-25T05:21:38.293Z,10.6
2016-12-25T05:22:18.809Z,10.63
2016-12-25T05:22:59.285Z,10.66
2016-12-25T05:23:39.861Z,10.55
2016-12-25T05:24:20.310Z,10.63
2016-12-25T05:25:00.819Z,10.67
2016-12-25T05:25:41.299Z,10.7
2016-12-25T05:26:21.828Z,10.61
2016-12-25T05:27:02.295Z,10.6
2016-12-25T05:27:42.813Z,10.67
2016-12-25T05:28:23.296Z,10.55
2016-12-25T05:29:03.804Z,10.63
2016-12-25T05:29:44.269Z,10.64
2016-12-25T05:30:24.802Z,10.61
2016-12-25T05:31:05.261Z,10.63
2016-12-25T05:31:45.743Z,10.7
2016-12-25T05:32:26.279Z,10.7
2016-12-25T05:33:06.796Z,10.67
2016-12-25T05:33:47.262Z,10.74
2016-12-25T05:34:27.816Z,10.6
2016-12-25T05:35:08.326Z,10.59
2016-12-25T05:35:48.794Z,10.6
2016-12-25T05:36:29.315Z,10.6
2016-12-25T05:37:09.831Z,10.52
2016-12-25T05:37:50.282Z,10.55
2016-12-25T05:38:30.737Z,10.55
2016-12-25T05:39:11.188Z,10.6
2016-12-25T05:39:51.698Z,10.55
2016-12-25T05:40:32.188Z,10.66
2016-12-25T05:41:12.702Z,10.71
2016-12-25T05:41:53.162Z,10.59
2016-12-25T05:42:33.683Z,10.59
2016-12-25T05:43:14.195Z,10.53
2016-12-25T05:43:54.647Z,10.56
2016-12-25T05:44:35.112Z,10.45
2016-12-25T05:45:15.565Z,10.61
2016-12-25T05:45:56.049Z,10.7
2016-12-25T05:46:36.587Z,10.73
2016-12-25T05:47:17.063Z,10.7
2016-12-25T05:47:57.547Z,10.52
2016-12-25T05:48:38.065Z,10.64
2016-12-25T05:49:18.542Z,10.59
2016-12-25T05:49:59.072Z,10.64
2016-12-25T05:50:39.518Z,10.61
2016-12-25T05:51:20.006Z,10.63
2016-12-25T05:52:00.535Z,10.67
2016-12-25T05:52:40.988Z,10.73
2016-12-25T05:53:21.510Z,10.59
2016-12-25T05:54:02.026Z,10.64
2016-12-25T05:54:42.504Z,10.53
2016-12-25T05:55:23.052Z,10.48
2016-12-25T05:56:03.566Z,10.53
2016-12-25T05:56:44.035Z,10.63
2016-12-25T05:57:24.546Z,10.64
2016-12-25T05:58:05.011Z,10.55
2016-12-25T05:58:45.551Z,10.7
2016-12-25T05:59:26.071Z,10.68
2016-12-25T06:00:06.551Z,10.67
2016-12-25T06:00:47.027Z,10.56
2016-12-25T06:01:27.543Z,10.66
2016-12-25T06:02:08.038Z,10.63
2016-12-25T06:02:48.507Z,10.6
2016-12-25T06:05:01.712Z,10.68
2016-12-25T06:05:42.224Z,10.64
2016-12-25T06:06:22.740Z,10.64
2016-12-25T06:07:03.255Z,10.61
2016-12-25T06:07:43.692Z,10.61
2016-12-25T06:08:24.193Z,10.63
2016-12-25T06:09:04.664Z,10.63
2016-12-25T06:09:45.163Z,10.67
2016-12-25T06:10:25.752Z,10.55
2016-12-25T06:11:06.167Z,10.61
2016-12-25T06:11:46.656Z,10.67
2016-12-25T06:12:27.131Z,10.61
2016-12-25T06:13:07.622Z,10.68
2016-12-25T06:13:48.115Z,10.64
2016-12-25T06:14:28.590Z,10.64
2016-12-25T06:15:09.125Z,10.61
2016-12-25T06:15:49.582Z,10.67
2016-12-25T06:16:30.067Z,10.68
2016-12-25T06:17:10.555Z,10.6
2016-12-25T06:17:51.078Z,10.61
2016-12-25T06:18:31.595Z,10.64
2016-12-25T06:19:12.150Z,10.66
2016-12-25T06:19:52.594Z,10.63
2016-12-25T06:20:33.140Z,10.67
2016-12-25T06:21:13.611Z,10.66
2016-12-25T06:21:54.071Z,10.63
2016-12-25T06:22:34.529Z,10.71
2016-12-25T06:23:15.014Z,10.66
2016-12-25T06:23:55.494Z,10.67
2016-12-25T06:24:36.021Z,10.74
2016-12-25T06:25:16.553Z,10.7
2016-12-25T06:25:57.006Z,10.64
2016-12-25T06:26:37.497Z,10.53
2016-12-25T06:27:18.011Z,10.51
2016-12-25T06:27:58.472Z,10.66
2016-12-25T06:28:38.955Z,10.6
2016-12-25T06:29:19.462Z,10.78
2016-12-25T06:29:59.918Z,10.7
2016-12-25T06:30:40.529Z,10.66
2016-12-25T06:31:21.020Z,10.73
2016-12-25T06:32:01.515Z,10.7
2016-12-25T06:32:42.040Z,10.71
2016-12-25T06:33:22.537Z,10.7
2016-12-25T06:34:03.069Z,10.59
2016-12-25T06:34:43.619Z,10.7
2016-12-25T06:35:24.092Z,10.76
2016-12-25T06:36:04.652Z,10.67
2016-12-25T06:36:45.096Z,10.73
2016-12-25T06:37:25.594Z,10.7
2016-12-25T06:38:06.065Z,10.61
2016-12-25T06:38:46.537Z,10.59
2016-12-25T06:39:27.037Z,10.74
2016-12-25T06:40:07.555Z,10.71
2016-12-25T06:40:47.986Z,10.6
2016-12-25T06:41:28.490Z,10.63
2016-12-25T06:42:08.983Z,10.73
2016-12-25T06:42:49.502Z,10.76
2016-12-25T06:43:29.989Z,10.81
2016-12-25T06:44:10.507Z,10.74
2016-12-25T06:44:50.951Z,10.59
2016-12-25T06:45:31.439Z,10.64
2016-12-25T06:46:12.010Z,10.67
2016-12-25T06:46:52.424Z,10.7
2016-12-25T06:47:32.924Z,10.76
2016-12-25T06:48:13.386Z,10.81
2016-12-25T06:48:53.868Z,10.82
2016-12-25T06:49:34.403Z,10.85
2016-12-25T06:50:14.869Z,10.81
2016-12-25T06:50:55.379Z,10.85
2016-12-25T06:51:35.856Z,10.79
2016-12-25T06:52:16.347Z,10.85
2016-12-25T06:52:56.820Z,10.84
2016-12-25T06:53:37.375Z,10.81
2016-12-25T06:54:17.859Z,10.78
2016-12-25T06:54:58.395Z,10.85
2016-12-25T06:55:38.840Z,10.86
2016-12-25T06:56:19.346Z,10.81
2016-12-25T06:56:59.800Z,10.81
2016-12-25T06:57:40.291Z,10.61
2016-12-25T06:58:20.760Z,10.66
2016-12-25T06:59:01.237Z,10.78
2016-12-25T06:59:41.724Z,10.76
2016-12-25T07:00:22.203Z,10.73
2016-12-25T07:01:02.776Z,10.78
2016-12-25T07:01:43.253Z,10.71
2016-12-25T07:03:56.477Z,10.85
2016-12-25T07:04:36.975Z,10.89
2016-12-25T07:05:17.468Z,10.84
2016-12-25T07:05:57.995Z,10.76
2016-12-25T07:06:38.479Z,10.76
2016-12-25T07:07:18.958Z,10.84
2016-12-25T07:07:59.481Z,10.82
2016-12-25T07:08:39.985Z,10.79
2016-12-25T07:09:20.494Z,10.78
2016-12-25T07:10:00.968Z,10.82
2016-12-25T07:10:41.476Z,10.82
2016-12-25T07:11:21.967Z,10.88
2016-12-25T07:12:02.484Z,10.81
2016-12-25T07:12:42.995Z,10.76
2016-12-25T07:13:23.512Z,10.74
2016-12-25T07:14:03.974Z,10.82
2016-12-25T07:14:44.483Z,10.85
2016-12-25T07:15:25.035Z,10.94
2016-12-25T07:16:05.465Z,10.84
2016-12-25T07:16:46.032Z,10.94
2016-12-25T07:17:26.441Z,10.89
2016-12-25T07:18:06.971Z,10.92
2016-12-25T07:18:47.405Z,10.94
2016-12-25T07:19:27.888Z,10.86
2016-12-25T07:20:08.384Z,10.82
2016-12-25T07:20:48.845Z,10.94
2016-12-25T07:21:29.325Z,10.97
2016-12-25T07:22:09.846Z,10.82
2016-12-25T07:22:50.315Z,10.96
2016-12-25T07:23:30.793Z,10.92
2016-12-25T07:24:11.338Z,10.96
2016-12-25T07:24:51.790Z,10.94
2016-12-25T07:25:32.302Z,11
2016-12-25T07:26:12.770Z,10.96
2016-12-25T07:26:53.255Z,10.91
2016-12-25T07:27:33.797Z,11.04
2016-12-25T07:28:14.304Z,11.04
2016-12-25T07:28:54.764Z,11.09
2016-12-25T07:29:35.260Z,11
2016-12-25T07:30:15.705Z,10.97
2016-12-25T07:30:56.179Z,11
2016-12-25T07:31:36.670Z,11.04
2016-12-25T07:32:17.158Z,11.03
2016-12-25T07:32:57.653Z,10.99
2016-12-25T07:33:38.181Z,11.04
2016-12-25T07:34:18.679Z,11.11
2016-12-25T07:34:59.184Z,10.96
2016-12-25T07:35:39.690Z,11
2016-12-25T07:36:20.278Z,10.67
2016-12-25T07:37:00.743Z,10.91
2016-12-25T07:37:41.222Z,10.86
2016-12-25T07:38:21.728Z,10.96
2016-12-25T07:39:02.246Z,10.91
2016-12-25T07:39:42.705Z,10.96
2016-12-25T07:40:23.194Z,10.97
2016-12-25T07:41:03.726Z,10.97
2016-12-25T07:41:44.222Z,10.97
2016-12-25T07:42:24.728Z,11.07
2016-12-25T07:43:05.204Z,10.96
2016-12-25T07:43:45.708Z,11.09
2016-12-25T07:44:26.206Z,11.17
2016-12-25T07:45:06.674Z,11.17
2016-12-25T07:45:47.147Z,11.09
2016-12-25T07:46:27.635Z,11.11
2016-12-25T07:47:08.102Z,11
2016-12-25T07:47:48.584Z,11.06
2016-12-25T07:48:29.107Z,11.07
2016-12-25T07:49:09.580Z,11.07
2016-12-25T07:49:50.064Z,11.11
2016-12-25T07:50:30.536Z,11.19
2016-12-25T07:51:11.037Z,11.21
2016-12-25T07:51:51.555Z,11.22
2016-12-25T07:52:32.035Z,11.06
2016-12-25T07:53:12.519Z,11.06
2016-12-25T07:53:52.996Z,11
2016-12-25T07:54:33.454Z,11.07
2016-12-25T07:55:13.943Z,11
2016-12-25T07:55:54.459Z,11.06
2016-12-25T07:56:34.945Z,11.07
2016-12-25T07:57:15.438Z,11.06
2016-12-25T07:57:55.908Z,11.06
2016-12-25T07:58:36.402Z,11.09
2016-12-25T07:59:16.874Z,11.03
2016-12-25T08:01:30.122Z,11.17
2016-12-25T08:02:10.629Z,11.14
2016-12-25T08:02:51.158Z,11.03
2016-12-25T08:03:31.654Z,11.03
2016-12-25T08:04:12.102Z,11.07
2016-12-25T08:04:52.584Z,11.17
2016-12-25T08:05:33.079Z,11.1
2016-12-25T08:06:13.554Z,11.21
2016-12-25T08:06:54.074Z,11.19
2016-12-25T08:07:34.532Z,11.04
2016-12-25T08:08:15.221Z,11.04
2016-12-25T08:08:55.732Z,11.14
2016-12-25T08:09:36.195Z,11.19
2016-12-25T08:10:16.676Z,11.17
2016-12-25T08:10:57.172Z,11.25
2016-12-25T08:11:37.648Z,11.24
2016-12-25T08:12:18.133Z,11.14
2016-12-25T08:12:58.632Z,11.1
2016-12-25T08:13:39.095Z,10.96
2016-12-25T08:14:19.581Z,10.96
2016-12-25T08:15:00.114Z,10.99
2016-12-25T08:15:40.559Z,11.04
2016-12-25T08:16:21.073Z,11.24
2016-12-25T08:17:01.547Z,11.18
2016-12-25T08:17:41.989Z,11.15
2016-12-25T08:18:22.496Z,11.18
2016-12-25T08:19:02.984Z,11.27
2016-12-25T08:19:43.429Z,11.19
2016-12-25T08:20:23.912Z,11.15
2016-12-25T08:21:04.403Z,11.07
2016-12-25T08:21:44.875Z,11.24
2016-12-25T08:22:25.400Z,11.28
2016-12-25T08:23:05.890Z,11.32
2016-12-25T08:23:46.397Z,11.29
2016-12-25T08:24:26.881Z,11.33
2016-12-25T08:25:07.349Z,11.21
2016-12-25T08:25:47.830Z,11.14
2016-12-25T08:26:28.323Z,11.11
2016-12-25T08:27:08.801Z,11.06
2016-12-25T08:27:49.284Z,11.04
2016-12-25T08:28:29.756Z,11.21
2016-12-25T08:29:10.276Z,11.22
2016-12-25T08:29:50.750Z,11.21
2016-12-25T08:30:31.259Z,11.25
2016-12-25T08:31:11.792Z,11.25
2016-12-25T08:31:52.266Z,11.32
2016-12-25T08:32:32.766Z,11.43
2016-12-25T08:33:13.292Z,11.35
2016-12-25T08:33:53.735Z,11.32
2016-12-25T08:34:34.224Z,11.33
2016-12-25T08:35:14.710Z,11.22
2016-12-25T08:35:55.181Z,11.33
2016-12-25T08:36:35.681Z,11.29
2016-12-25T08:37:16.158Z,11.18
2016-12-25T08:37:56.621Z,11.28
2016-12-25T08:38:37.150Z,11.22
2016-12-25T08:39:17.634Z,11.21
2016-12-25T08:39:58.130Z,11.18
2016-12-25T08:40:38.625Z,11.18
2016-12-25T08:41:19.188Z,11.22
2016-12-25T08:41:59.641Z,11.32
2016-12-25T08:42:40.116Z,11.33
2016-12-25T08:43:20.632Z,11.14
2016-12-25T08:44:01.093Z,11.24
2016-12-25T08:44:41.579Z,11.22
2016-12-25T08:45:22.045Z,11.32
2016-12-25T08:46:02.576Z,11.28
2016-12-25T08:46:43.064Z,11.22
2016-12-25T08:47:23.502Z,11.15
2016-12-25T08:48:04.028Z,11.18
2016-12-25T08:48:44.554Z,11.27
2016-12-25T08:49:25.011Z,11.39
2016-12-25T08:50:05.513Z,11.32
2016-12-25T08:50:46.003Z,11.35
2016-12-25T08:51:26.491Z,11.43
2016-12-25T08:52:06.963Z,11.4
2016-12-25T08:52:47.447Z,11.33
2016-12-25T08:53:27.973Z,11.25
2016-12-25T08:54:08.488Z,11.18
2016-12-25T08:54:48.953Z,11.33
2016-12-25T08:55:29.464Z,11.35
2016-12-25T08:56:09.917Z,11.27
2016-12-25T08:56:50.393Z,11.27
2016-12-25T08:57:30.940Z,11.36
2016-12-25T08:59:44.206Z,11.47
2016-12-25T09:00:24.711Z,11.42